sensor_id;sensor_type;location;lat;lon;timestamp;pressure;altitude;pressure_sealevel;temperature;humidity
5284;BME280;15377;48.540;9.268;2024-02-14T00:02:06;97913.78;;;1.55;100.00
5284;BME280;15377;48.540;9.268;2024-02-14T00:04:31;97915.75;;;1.54;100.00
5284;BME280;15377;48.540;9.268;2024-02-14T00:06:57;97922.69;;;1.59;100.00
5284;BME280;15377;48.540;9.268;2024-02-14T00:09:22;97927.66;;;1.64;100.00
5284;BME280;15377;48.540;9.268;2024-02-14T00:11:47;97923.09;;;1.57;100.00
5284;BME280;15377;48.540;9.268;2024-02-14T00:14:13;97907.22;;;1.52;100.00
5284;BME280;15377;48.540;9.268;2024-02-14T00:16:39;97923.03;;;1.64;100.00
5284;BME280;15377;48.540;9.268;2024-02-14T00:19:04;97934.59;;;1.68;100.00
5284;BME280;15377;48.540;9.268;2024-02-14T00:21:29;97933.31;;;1.83;100.00
5284;BME280;15377;48.540;9.268;2024-02-14T00:23:55;97929.75;;;1.93;100.00
5284;BME280;15377;48.540;9.268;2024-02-14T00:26:21;97928.13;;;1.99;100.00
5284;BME280;15377;48.540;9.268;2024-02-14T00:28:47;97928.91;;;2.00;100.00
5284;BME280;15377;48.540;9.268;2024-02-14T00:31:12;97931.94;;;2.05;100.00
5284;BME280;15377;48.540;9.268;2024-02-14T00:33:38;97934.25;;;2.10;100.00
5284;BME280;15377;48.540;9.268;2024-02-14T00:36:03;97925.56;;;2.22;100.00
5284;BME280;15377;48.540;9.268;2024-02-14T00:38:29;97923.88;;;2.35;100.00
5284;BME280;15377;48.540;9.268;2024-02-14T00:40:54;97926.44;;;2.49;100.00
5284;BME280;15377;48.540;9.268;2024-02-14T00:43:20;97930.63;;;2.57;100.00
5284;BME280;15377;48.540;9.268;2024-02-14T00:45:45;97925.09;;;2.64;100.00
5284;BME280;15377;48.540;9.268;2024-02-14T00:48:10;97925.91;;;2.61;100.00
5284;BME280;15377;48.540;9.268;2024-02-14T00:50:36;97928.34;;;2.52;100.00
5284;BME280;15377;48.540;9.268;2024-02-14T00:53:03;97926.44;;;2.49;100.00
5284;BME280;15377;48.540;9.268;2024-02-14T00:55:28;97932.22;;;2.51;100.00
5284;BME280;15377;48.540;9.268;2024-02-14T00:57:53;97931.84;;;2.53;100.00
5284;BME280;15377;48.540;9.268;2024-02-14T01:00:19;97923.34;;;2.47;100.00
5284;BME280;15377;48.540;9.268;2024-02-14T01:02:44;97933.84;;;2.45;100.00
5284;BME280;15377;48.540;9.268;2024-02-14T01:05:10;97934.16;;;2.51;100.00
5284;BME280;15377;48.540;9.268;2024-02-14T01:07:35;97932.16;;;2.58;100.00
5284;BME280;15377;48.540;9.268;2024-02-14T01:10:01;97933.59;;;2.66;100.00
5284;BME280;15377;48.540;9.268;2024-02-14T01:12:27;97938.91;;;2.77;100.00
5284;BME280;15377;48.540;9.268;2024-02-14T01:14:55;97935.34;;;2.83;100.00
5284;BME280;15377;48.540;9.268;2024-02-14T01:17:20;97947.66;;;2.91;100.00
5284;BME280;15377;48.540;9.268;2024-02-14T01:19:46;97945.72;;;2.92;100.00
5284;BME280;15377;48.540;9.268;2024-02-14T01:22:11;97942.84;;;3.02;100.00
5284;BME280;15377;48.540;9.268;2024-02-14T01:24:37;97945.38;;;3.16;100.00
5284;BME280;15377;48.540;9.268;2024-02-14T01:27:02;97944.91;;;3.21;100.00
5284;BME280;15377;48.540;9.268;2024-02-14T01:29:28;97939.13;;;3.19;100.00
5284;BME280;15377;48.540;9.268;2024-02-14T01:31:54;97933.63;;;3.23;100.00
5284;BME280;15377;48.540;9.268;2024-02-14T01:34:20;97932.41;;;3.27;100.00
5284;BME280;15377;48.540;9.268;2024-02-14T01:36:46;97936.72;;;3.25;100.00
5284;BME280;15377;48.540;9.268;2024-02-14T01:39:11;97934.41;;;3.23;100.00
5284;BME280;15377;48.540;9.268;2024-02-14T01:41:37;97938.19;;;3.29;100.00
5284;BME280;15377;48.540;9.268;2024-02-14T01:44:03;97939.00;;;3.26;100.00
5284;BME280;15377;48.540;9.268;2024-02-14T01:46:29;97929.69;;;3.27;100.00
5284;BME280;15377;48.540;9.268;2024-02-14T01:48:55;97928.84;;;3.30;100.00
5284;BME280;15377;48.540;9.268;2024-02-14T01:51:22;97933.47;;;3.33;100.00
5284;BME280;15377;48.540;9.268;2024-02-14T01:53:49;97930.28;;;3.38;100.00
5284;BME280;15377;48.540;9.268;2024-02-14T01:56:16;97921.72;;;3.40;100.00
5284;BME280;15377;48.540;9.268;2024-02-14T01:58:42;97914.31;;;3.40;100.00
5284;BME280;15377;48.540;9.268;2024-02-14T02:01:08;97906.06;;;3.47;100.00
5284;BME280;15377;48.540;9.268;2024-02-14T02:03:35;97903.69;;;3.49;100.00
5284;BME280;15377;48.540;9.268;2024-02-14T02:06:03;97901.34;;;3.51;100.00
5284;BME280;15377;48.540;9.268;2024-02-14T02:08:28;97908.31;;;3.52;100.00
5284;BME280;15377;48.540;9.268;2024-02-14T02:10:54;97912.22;;;3.51;100.00
5284;BME280;15377;48.540;9.268;2024-02-14T02:13:19;97912.28;;;3.47;100.00
5284;BME280;15377;48.540;9.268;2024-02-14T02:15:46;97916.22;;;3.43;100.00
5284;BME280;15377;48.540;9.268;2024-02-14T02:18:12;97924.41;;;3.43;100.00
5284;BME280;15377;48.540;9.268;2024-02-14T02:20:38;97917.03;;;3.40;100.00
5284;BME280;15377;48.540;9.268;2024-02-14T02:23:03;97916.34;;;3.36;100.00
5284;BME280;15377;48.540;9.268;2024-02-14T02:25:30;97917.94;;;3.34;100.00
5284;BME280;15377;48.540;9.268;2024-02-14T02:27:55;97917.03;;;3.40;100.00
5284;BME280;15377;48.540;9.268;2024-02-14T02:30:24;97906.06;;;3.47;100.00
5284;BME280;15377;48.540;9.268;2024-02-14T02:32:50;97892.00;;;3.52;100.00
5284;BME280;15377;48.540;9.268;2024-02-14T02:35:17;97908.19;;;3.59;100.00
5284;BME280;15377;48.540;9.268;2024-02-14T02:37:46;97910.81;;;3.66;100.00
5284;BME280;15377;48.540;9.268;2024-02-14T02:40:23;97903.00;;;3.68;100.00
5284;BME280;15377;48.540;9.268;2024-02-14T02:42:49;97890.63;;;3.63;100.00
5284;BME280;15377;48.540;9.268;2024-02-14T02:45:16;97896.81;;;3.64;100.00
5284;BME280;15377;48.540;9.268;2024-02-14T02:47:41;97891.31;;;3.67;100.00
5284;BME280;15377;48.540;9.268;2024-02-14T02:50:07;97889.34;;;3.71;100.00
5284;BME280;15377;48.540;9.268;2024-02-14T02:52:33;97880.72;;;3.73;100.00
5284;BME280;15377;48.540;9.268;2024-02-14T02:54:59;97877.53;;;3.78;100.00
5284;BME280;15377;48.540;9.268;2024-02-14T02:57:26;97872.94;;;3.75;100.00
5284;BME280;15377;48.540;9.268;2024-02-14T02:59:52;97877.66;;;3.71;100.00
5284;BME280;15377;48.540;9.268;2024-02-14T03:02:19;97865.97;;;3.74;100.00
5284;BME280;15377;48.540;9.268;2024-02-14T03:04:45;97864.41;;;3.73;100.00
5284;BME280;15377;48.540;9.268;2024-02-14T03:07:10;97856.38;;;3.66;100.00
5284;BME280;15377;48.540;9.268;2024-02-14T03:09:36;97865.25;;;3.70;100.00
5284;BME280;15377;48.540;9.268;2024-02-14T03:12:05;97851.34;;;3.64;100.00
5284;BME280;15377;48.540;9.268;2024-02-14T03:14:31;97845.84;;;3.68;100.00
5284;BME280;15377;48.540;9.268;2024-02-14T03:17:01;97848.56;;;3.68;100.00
5284;BME280;15377;48.540;9.268;2024-02-14T03:19:26;97839.22;;;3.69;100.00
5284;BME280;15377;48.540;9.268;2024-02-14T03:21:53;97829.88;;;3.70;100.00
5284;BME280;15377;48.540;9.268;2024-02-14T03:24:19;97833.31;;;3.74;100.00
5284;BME280;15377;48.540;9.268;2024-02-14T03:26:44;97845.41;;;3.69;100.00
5284;BME280;15377;48.540;9.268;2024-02-14T03:29:10;97846.53;;;3.72;100.00
5284;BME280;15377;48.540;9.268;2024-02-14T03:31:35;97841.88;;;3.72;100.00
5284;BME280;15377;48.540;9.268;2024-02-14T03:34:01;97836.38;;;3.76;100.00
5284;BME280;15377;48.540;9.268;2024-02-14T03:36:27;97838.59;;;3.81;100.00
5284;BME280;15377;48.540;9.268;2024-02-14T03:38:56;97839.31;;;3.85;100.00
5284;BME280;15377;48.540;9.268;2024-02-14T03:41:21;97868.78;;;3.90;100.00
5284;BME280;15377;48.540;9.268;2024-02-14T03:43:47;97868.06;;;3.86;100.00
5284;BME280;15377;48.540;9.268;2024-02-14T03:46:12;97878.28;;;3.82;100.00
5284;BME280;15377;48.540;9.268;2024-02-14T03:48:38;97891.72;;;3.89;100.00
5284;BME280;15377;48.540;9.268;2024-02-14T03:51:06;97892.91;;;3.88;100.00
5284;BME280;15377;48.540;9.268;2024-02-14T03:53:31;97899.44;;;3.94;100.00
5284;BME280;15377;48.540;9.268;2024-02-14T03:55:58;97906.13;;;3.89;100.00
5284;BME280;15377;48.540;9.268;2024-02-14T03:58:23;97904.59;;;3.88;100.00
5284;BME280;15377;48.540;9.268;2024-02-14T04:00:52;97911.63;;;3.86;100.00
5284;BME280;15377;48.540;9.268;2024-02-14T04:03:18;97919.44;;;3.84;100.00
5284;BME280;15377;48.540;9.268;2024-02-14T04:05:44;97914.00;;;3.84;100.00
5284;BME280;15377;48.540;9.268;2024-02-14T04:08:10;97919.28;;;3.94;100.00
5284;BME280;15377;48.540;9.268;2024-02-14T04:10:36;97911.84;;;3.95;100.00
5284;BME280;15377;48.540;9.268;2024-02-14T04:13:05;97913.38;;;3.96;100.00
5284;BME280;15377;48.540;9.268;2024-02-14T04:15:31;97916.84;;;4.00;100.00
5284;BME280;15377;48.540;9.268;2024-02-14T04:17:57;97909.47;;;3.97;100.00
5284;BME280;15377;48.540;9.268;2024-02-14T04:20:24;97902.50;;;3.96;100.00
5284;BME280;15377;48.540;9.268;2024-02-14T04:22:50;97904.03;;;3.97;100.00
5284;BME280;15377;48.540;9.268;2024-02-14T04:25:15;97902.16;;;3.94;100.00
5284;BME280;15377;48.540;9.268;2024-02-14T04:27:41;97894.81;;;3.91;100.00
5284;BME280;15377;48.540;9.268;2024-02-14T04:30:06;97899.31;;;3.78;100.00
5284;BME280;15377;48.540;9.268;2024-02-14T04:32:32;97906.06;;;3.70;100.00
5284;BME280;15377;48.540;9.268;2024-02-14T04:34:58;97905.84;;;3.61;100.00
5284;BME280;15377;48.540;9.268;2024-02-14T04:37:24;97900.38;;;3.61;100.00
5284;BME280;15377;48.540;9.268;2024-02-14T04:39:49;97906.78;;;3.51;100.00
5284;BME280;15377;48.540;9.268;2024-02-14T04:42:15;97898.00;;;3.40;100.00
5284;BME280;15377;48.540;9.268;2024-02-14T04:44:40;97898.84;;;3.37;100.00
5284;BME280;15377;48.540;9.268;2024-02-14T04:47:06;97889.94;;;3.33;100.00
5284;BME280;15377;48.540;9.268;2024-02-14T04:49:31;97903.28;;;3.24;100.00
5284;BME280;15377;48.540;9.268;2024-02-14T04:51:57;97887.41;;;2.96;100.00
5284;BME280;15377;48.540;9.268;2024-02-14T04:54:23;97912.13;;;3.05;100.00
5284;BME280;15377;48.540;9.268;2024-02-14T04:56:49;97908.97;;;3.07;100.00
5284;BME280;15377;48.540;9.268;2024-02-14T04:59:15;97921.47;;;3.04;100.00
5284;BME280;15377;48.540;9.268;2024-02-14T05:01:40;97927.25;;;3.06;100.00
5284;BME280;15377;48.540;9.268;2024-02-14T05:04:06;97928.00;;;3.07;100.00
5284;BME280;15377;48.540;9.268;2024-02-14T05:06:32;97935.31;;;3.13;100.00
5284;BME280;15377;48.540;9.268;2024-02-14T05:08:58;97945.38;;;3.16;100.00
5284;BME280;15377;48.540;9.268;2024-02-14T05:11:23;97934.34;;;3.27;100.00
5284;BME280;15377;48.540;9.268;2024-02-14T05:13:49;97942.25;;;3.44;100.00
5284;BME280;15377;48.540;9.268;2024-02-14T05:16:18;97938.59;;;3.54;100.00
5284;BME280;15377;48.540;9.268;2024-02-14T05:18:44;97936.84;;;3.67;100.00
5284;BME280;15377;48.540;9.268;2024-02-14T05:21:09;97932.03;;;3.74;100.00
5284;BME280;15377;48.540;9.268;2024-02-14T05:23:34;97943.59;;;3.82;100.00
5284;BME280;15377;48.540;9.268;2024-02-14T05:26:02;97940.81;;;3.85;100.00
5284;BME280;15377;48.540;9.268;2024-02-14T05:28:28;97932.66;;;3.85;100.00
5284;BME280;15377;48.540;9.268;2024-02-14T05:30:54;97934.81;;;3.94;100.00
5284;BME280;15377;48.540;9.268;2024-02-14T05:33:20;97934.88;;;3.90;100.00
5284;BME280;15377;48.540;9.268;2024-02-14T05:35:48;97941.84;;;3.91;100.00
5284;BME280;15377;48.540;9.268;2024-02-14T05:38:14;97927.00;;;3.96;100.00
5284;BME280;15377;48.540;9.268;2024-02-14T05:40:40;97923.09;;;3.97;100.00
5284;BME280;15377;48.540;9.268;2024-02-14T05:43:05;97925.00;;;4.00;100.00
5284;BME280;15377;48.540;9.268;2024-02-14T05:45:32;97933.88;;;4.04;100.00
5284;BME280;15377;48.540;9.268;2024-02-14T05:47:57;97916.78;;;4.03;100.00
5284;BME280;15377;48.540;9.268;2024-02-14T05:50:23;97915.19;;;4.06;100.00
5284;BME280;15377;48.540;9.268;2024-02-14T05:52:48;97923.34;;;4.06;100.00
5284;BME280;15377;48.540;9.268;2024-02-14T05:55:13;97913.63;;;4.05;100.00
5284;BME280;15377;48.540;9.268;2024-02-14T05:57:40;97915.25;;;4.02;100.00
5284;BME280;15377;48.540;9.268;2024-02-14T06:00:07;97911.25;;;4.07;100.00
5284;BME280;15377;48.540;9.268;2024-02-14T06:02:34;97909.84;;;3.99;100.00
5284;BME280;15377;48.540;9.268;2024-02-14T06:04:59;97910.66;;;3.96;100.00
5284;BME280;15377;48.540;9.268;2024-02-14T06:07:25;97906.28;;;4.02;100.00
5284;BME280;15377;48.540;9.268;2024-02-14T06:09:50;97903.22;;;4.00;100.00
5284;BME280;15377;48.540;9.268;2024-02-14T06:12:15;97905.94;;;4.00;100.00
5284;BME280;15377;48.540;9.268;2024-02-14T06:14:41;97897.06;;;3.96;100.00
5284;BME280;15377;48.540;9.268;2024-02-14T06:17:06;97892.72;;;3.98;100.00
5284;BME280;15377;48.540;9.268;2024-02-14T06:19:31;97893.38;;;4.06;100.00
5284;BME280;15377;48.540;9.268;2024-02-14T06:21:58;97898.84;;;4.06;100.00
5284;BME280;15377;48.540;9.268;2024-02-14T06:24:24;97903.78;;;4.11;100.00
5284;BME280;15377;48.540;9.268;2024-02-14T06:26:49;97913.50;;;4.12;100.00
5284;BME280;15377;48.540;9.268;2024-02-14T06:29:15;97907.84;;;4.22;100.00
5284;BME280;15377;48.540;9.268;2024-02-14T06:31:40;97898.00;;;4.28;100.00
5284;BME280;15377;48.540;9.268;2024-02-14T06:34:05;97902.16;;;4.36;100.00
5284;BME280;15377;48.540;9.268;2024-02-14T06:36:32;97893.91;;;4.40;100.00
5284;BME280;15377;48.540;9.268;2024-02-14T06:38:57;97907.72;;;4.49;100.00
5284;BME280;15377;48.540;9.268;2024-02-14T06:41:23;97913.03;;;4.56;100.00
5284;BME280;15377;48.540;9.268;2024-02-14T06:43:48;97907.81;;;4.65;100.00
5284;BME280;15377;48.540;9.268;2024-02-14T06:46:14;97918.22;;;4.70;100.00
5284;BME280;15377;48.540;9.268;2024-02-14T06:48:39;97929.47;;;4.72;100.00
5284;BME280;15377;48.540;9.268;2024-02-14T06:51:06;97934.78;;;4.79;100.00
5284;BME280;15377;48.540;9.268;2024-02-14T06:53:32;97929.31;;;4.79;100.00
5284;BME280;15377;48.540;9.268;2024-02-14T06:55:57;97925.47;;;4.76;100.00
5284;BME280;15377;48.540;9.268;2024-02-14T06:58:22;97948.75;;;4.81;100.00
5284;BME280;15377;48.540;9.268;2024-02-14T07:00:48;97951.13;;;4.79;100.00
5284;BME280;15377;48.540;9.268;2024-02-14T07:03:13;97948.28;;;4.66;100.00
5284;BME280;15377;48.540;9.268;2024-02-14T07:05:38;97966.09;;;4.71;100.00
5284;BME280;15377;48.540;9.268;2024-02-14T07:08:04;97961.47;;;4.68;100.00
5284;BME280;15377;48.540;9.268;2024-02-14T07:10:30;97954.53;;;4.63;100.00
5284;BME280;15377;48.540;9.268;2024-02-14T07:12:56;97953.78;;;4.63;100.00
5284;BME280;15377;48.540;9.268;2024-02-14T07:15:21;97965.03;;;4.65;100.00
5284;BME280;15377;48.540;9.268;2024-02-14T07:17:47;97961.63;;;4.61;100.00
5284;BME280;15377;48.540;9.268;2024-02-14T07:20:13;97963.78;;;4.69;100.00
5284;BME280;15377;48.540;9.268;2024-02-14T07:22:38;97962.13;;;4.75;100.00
5284;BME280;15377;48.540;9.268;2024-02-14T07:25:04;97951.13;;;4.79;100.00
5284;BME280;15377;48.540;9.268;2024-02-14T07:27:30;97947.41;;;4.89;100.00
5284;BME280;15377;48.540;9.268;2024-02-14T07:29:56;97945.41;;;4.93;100.00
5284;BME280;15377;48.540;9.268;2024-02-14T07:32:21;97947.53;;;5.01;100.00
5284;BME280;15377;48.540;9.268;2024-02-14T07:34:47;97957.38;;;5.15;100.00
5284;BME280;15377;48.540;9.268;2024-02-14T07:37:13;97961.00;;;5.28;100.00
5284;BME280;15377;48.540;9.268;2024-02-14T07:39:40;97958.53;;;5.33;100.00
5284;BME280;15377;48.540;9.268;2024-02-14T07:42:06;97964.06;;;5.30;100.00
5284;BME280;15377;48.540;9.268;2024-02-14T07:44:32;97977.41;;;5.44;100.00
5284;BME280;15377;48.540;9.268;2024-02-14T07:46:57;97978.22;;;5.60;100.00
5284;BME280;15377;48.540;9.268;2024-02-14T07:49:22;97967.72;;;5.75;100.00
5284;BME280;15377;48.540;9.268;2024-02-14T07:51:48;97964.28;;;5.90;100.00
5284;BME280;15377;48.540;9.268;2024-02-14T07:54:13;97967.25;;;6.12;100.00
5284;BME280;15377;48.540;9.268;2024-02-14T07:56:39;97970.97;;;6.34;100.00
5284;BME280;15377;48.540;9.268;2024-02-14T07:59:04;97964.09;;;6.58;100.00
5284;BME280;15377;48.540;9.268;2024-02-14T08:01:30;97976.31;;;6.82;100.00
5284;BME280;15377;48.540;9.268;2024-02-14T08:03:57;97985.44;;;7.03;100.00
5284;BME280;15377;48.540;9.268;2024-02-14T08:06:23;97989.53;;;7.11;100.00
5284;BME280;15377;48.540;9.268;2024-02-14T08:08:50;97981.69;;;7.26;100.00
5284;BME280;15377;48.540;9.268;2024-02-14T08:11:19;97991.25;;;7.46;100.00
5284;BME280;15377;48.540;9.268;2024-02-14T08:13:44;97980.19;;;7.62;100.00
5284;BME280;15377;48.540;9.268;2024-02-14T08:16:10;97981.59;;;7.79;100.00
5284;BME280;15377;48.540;9.268;2024-02-14T08:18:35;97990.16;;;8.06;100.00
5284;BME280;15377;48.540;9.268;2024-02-14T08:21:01;97994.63;;;8.25;100.00
5284;BME280;15377;48.540;9.268;2024-02-14T08:23:26;97993.69;;;8.41;100.00
5284;BME280;15377;48.540;9.268;2024-02-14T08:25:52;97988.28;;;8.62;100.00
5284;BME280;15377;48.540;9.268;2024-02-14T08:28:17;97992.75;;;8.69;100.00
5284;BME280;15377;48.540;9.268;2024-02-14T08:30:43;97989.69;;;8.67;100.00
5284;BME280;15377;48.540;9.268;2024-02-14T08:33:09;97993.84;;;8.71;100.00
5284;BME280;15377;48.540;9.268;2024-02-14T08:35:36;97991.16;;;8.80;100.00
5284;BME280;15377;48.540;9.268;2024-02-14T08:38:01;98009.28;;;8.99;100.00
5284;BME280;15377;48.540;9.268;2024-02-14T08:40:27;98009.94;;;9.03;100.00
5284;BME280;15377;48.540;9.268;2024-02-14T08:42:52;98011.53;;;9.13;100.00
5284;BME280;15377;48.540;9.268;2024-02-14T08:45:18;98017.78;;;9.35;100.00
5284;BME280;15377;48.540;9.268;2024-02-14T08:47:44;98015.75;;;9.48;100.00
5284;BME280;15377;48.540;9.268;2024-02-14T08:50:09;98012.13;;;9.60;100.00
5284;BME280;15377;48.540;9.268;2024-02-14T08:52:34;98014.31;;;9.65;100.00
5284;BME280;15377;48.540;9.268;2024-02-14T08:55:01;98017.50;;;9.64;100.00
5284;BME280;15377;48.540;9.268;2024-02-14T08:57:26;98016.03;;;9.81;100.00
5284;BME280;15377;48.540;9.268;2024-02-14T08:59:52;98008.78;;;9.96;100.00
5284;BME280;15377;48.540;9.268;2024-02-14T09:02:18;98012.81;;;10.04;100.00
5284;BME280;15377;48.540;9.268;2024-02-14T09:04:44;98009.06;;;10.19;100.00
5284;BME280;15377;48.540;9.268;2024-02-14T09:07:09;98011.97;;;10.25;100.00
5284;BME280;15377;48.540;9.268;2024-02-14T09:09:35;98015.19;;;10.32;100.00
5284;BME280;15377;48.540;9.268;2024-02-14T09:12:01;98015.53;;;10.43;100.00
5284;BME280;15377;48.540;9.268;2024-02-14T09:14:28;98007.28;;;10.43;100.00
5284;BME280;15377;48.540;9.268;2024-02-14T09:16:54;98006.94;;;10.50;100.00
5284;BME280;15377;48.540;9.268;2024-02-14T09:19:19;98025.97;;;10.66;100.00
5284;BME280;15377;48.540;9.268;2024-02-14T09:21:44;98016.78;;;10.78;100.00
5284;BME280;15377;48.540;9.268;2024-02-14T09:24:10;98021.53;;;10.95;100.00
5284;BME280;15377;48.540;9.268;2024-02-14T09:26:36;98023.69;;;11.09;100.00
5284;BME280;15377;48.540;9.268;2024-02-14T09:29:03;98021.34;;;11.35;100.00
5284;BME280;15377;48.540;9.268;2024-02-14T09:31:28;98018.25;;;11.51;100.00
5284;BME280;15377;48.540;9.268;2024-02-14T09:33:53;98029.91;;;11.55;100.00
5284;BME280;15377;48.540;9.268;2024-02-14T09:36:22;98028.38;;;11.63;100.00
5284;BME280;15377;48.540;9.268;2024-02-14T09:38:47;98025.28;;;11.70;100.00
5284;BME280;15377;48.540;9.268;2024-02-14T09:41:22;98019.13;;;11.84;100.00
5284;BME280;15377;48.540;9.268;2024-02-14T09:43:51;98023.09;;;11.92;100.00
5284;BME280;15377;48.540;9.268;2024-02-14T09:46:17;98034.63;;;11.72;100.00
5284;BME280;15377;48.540;9.268;2024-02-14T09:48:44;98032.31;;;11.80;100.00
5284;BME280;15377;48.540;9.268;2024-02-14T09:51:11;98039.00;;;11.88;100.00
5284;BME280;15377;48.540;9.268;2024-02-14T09:53:41;98024.44;;;11.87;100.00
5284;BME280;15377;48.540;9.268;2024-02-14T09:56:09;98023.13;;;12.15;100.00
5284;BME280;15377;48.540;9.268;2024-02-14T09:58:35;98020.44;;;12.30;100.00
5284;BME280;15377;48.540;9.268;2024-02-14T10:01:01;98019.16;;;12.63;100.00
5284;BME280;15377;48.540;9.268;2024-02-14T10:03:27;98032.13;;;13.19;100.00
5284;BME280;15377;48.540;9.268;2024-02-14T10:05:52;98019.09;;;13.48;100.00
5284;BME280;15377;48.540;9.268;2024-02-14T10:08:18;98016.06;;;14.39;100.00
5284;BME280;15377;48.540;9.268;2024-02-14T10:10:44;98018.69;;;15.27;100.00
5284;BME280;15377;48.540;9.268;2024-02-14T10:13:09;98005.13;;;15.55;100.00
5284;BME280;15377;48.540;9.268;2024-02-14T10:15:35;98011.38;;;15.04;100.00
5284;BME280;15377;48.540;9.268;2024-02-14T10:18:01;98011.53;;;14.56;100.00
5284;BME280;15377;48.540;9.268;2024-02-14T10:20:28;98003.34;;;14.67;100.00
5284;BME280;15377;48.540;9.268;2024-02-14T10:23:05;98014.25;;;14.36;100.00
5284;BME280;15377;48.540;9.268;2024-02-14T10:25:30;98007.91;;;14.01;100.00
5284;BME280;15377;48.540;9.268;2024-02-14T10:28:04;98006.53;;;13.62;100.00
5284;BME280;15377;48.540;9.268;2024-02-14T10:30:30;98010.41;;;13.41;100.00
5284;BME280;15377;48.540;9.268;2024-02-14T10:32:58;97997.84;;;13.40;100.00
5284;BME280;15377;48.540;9.268;2024-02-14T10:35:23;97995.53;;;13.24;100.00
5284;BME280;15377;48.540;9.268;2024-02-14T10:37:49;98002.59;;;13.25;100.00
5284;BME280;15377;48.540;9.268;2024-02-14T10:40:14;97993.81;;;13.12;100.00
5284;BME280;15377;48.540;9.268;2024-02-14T10:42:39;97996.50;;;13.21;100.00
5284;BME280;15377;48.540;9.268;2024-02-14T10:45:05;97985.16;;;13.33;100.00
5284;BME280;15377;48.540;9.268;2024-02-14T10:47:34;97985.25;;;13.39;100.00
5284;BME280;15377;48.540;9.268;2024-02-14T10:50:02;97987.34;;;13.44;100.00
5284;BME280;15377;48.540;9.268;2024-02-14T10:52:31;97983.34;;;13.45;100.00
5284;BME280;15377;48.540;9.268;2024-02-14T10:55:02;97975.91;;;13.51;100.00
5284;BME280;15377;48.540;9.268;2024-02-14T10:57:28;97973.25;;;13.42;100.00
5284;BME280;15377;48.540;9.268;2024-02-14T10:59:54;97981.63;;;13.62;100.00
5284;BME280;15377;48.540;9.268;2024-02-14T11:02:22;97974.47;;;13.70;100.00
5284;BME280;15377;48.540;9.268;2024-02-14T11:04:49;97981.88;;;13.93;100.00
5284;BME280;15377;48.540;9.268;2024-02-14T11:07:19;97975.44;;;14.16;100.00
5284;BME280;15377;48.540;9.268;2024-02-14T11:09:45;97977.50;;;14.35;100.00
5284;BME280;15377;48.540;9.268;2024-02-14T11:12:11;97972.31;;;14.23;100.00
5284;BME280;15377;48.540;9.268;2024-02-14T11:14:37;97990.91;;;14.22;100.00
5284;BME280;15377;48.540;9.268;2024-02-14T11:17:13;97991.69;;;14.08;100.00
5284;BME280;15377;48.540;9.268;2024-02-14T11:19:39;97982.16;;;13.95;100.00
5284;BME280;15377;48.540;9.268;2024-02-14T11:24:38;97981.16;;;14.27;100.00
5284;BME280;15377;48.540;9.268;2024-02-14T11:27:09;97986.00;;;14.32;100.00
5284;BME280;15377;48.540;9.268;2024-02-14T11:29:35;97991.03;;;14.48;100.00
5284;BME280;15377;48.540;9.268;2024-02-14T11:32:01;97989.56;;;14.52;100.00
5284;BME280;15377;48.540;9.268;2024-02-14T11:34:28;97993.50;;;14.46;100.00
5284;BME280;15377;48.540;9.268;2024-02-14T11:36:53;97985.63;;;14.39;100.00
5284;BME280;15377;48.540;9.268;2024-02-14T11:39:20;98004.53;;;14.26;100.00
5284;BME280;15377;48.540;9.268;2024-02-14T11:41:46;97999.88;;;14.03;100.00
5284;BME280;15377;48.540;9.268;2024-02-14T11:44:11;98004.69;;;14.02;100.00
5284;BME280;15377;48.540;9.268;2024-02-14T11:46:39;98005.63;;;14.14;100.00
5284;BME280;15377;48.540;9.268;2024-02-14T11:49:05;97998.38;;;14.02;100.00
5284;BME280;15377;48.540;9.268;2024-02-14T11:51:33;97986.16;;;13.94;100.00
5284;BME280;15377;48.540;9.268;2024-02-14T11:53:59;97988.47;;;13.95;100.00
5284;BME280;15377;48.540;9.268;2024-02-14T11:56:31;97997.97;;;14.09;100.00
5284;BME280;15377;48.540;9.268;2024-02-14T11:59:00;97985.25;;;14.17;100.00
5284;BME280;15377;48.540;9.268;2024-02-14T12:01:28;97984.03;;;14.18;100.00
5284;BME280;15377;48.540;9.268;2024-02-14T12:03:54;97988.28;;;13.99;100.00
5284;BME280;15377;48.540;9.268;2024-02-14T12:06:19;97991.31;;;14.01;100.00
5284;BME280;15377;48.540;9.268;2024-02-14T12:08:45;97987.69;;;13.95;100.00
5284;BME280;15377;48.540;9.268;2024-02-14T12:11:10;97985.03;;;13.86;100.00
5284;BME280;15377;48.540;9.268;2024-02-14T12:13:36;97987.81;;;13.86;100.00
5284;BME280;15377;48.540;9.268;2024-02-14T12:16:03;97998.94;;;13.91;100.00
5284;BME280;15377;48.540;9.268;2024-02-14T12:18:31;97997.81;;;13.98;100.00
5284;BME280;15377;48.540;9.268;2024-02-14T12:21:06;97981.59;;;13.91;100.00
5284;BME280;15377;48.540;9.268;2024-02-14T12:23:35;97996.69;;;13.90;100.00
5284;BME280;15377;48.540;9.268;2024-02-14T12:26:04;97987.69;;;13.95;100.00
5284;BME280;15377;48.540;9.268;2024-02-14T12:28:30;97993.03;;;13.98;100.00
5284;BME280;15377;48.540;9.268;2024-02-14T12:30:56;97995.69;;;14.22;100.00
5284;BME280;15377;48.540;9.268;2024-02-14T12:33:23;97985.34;;;14.37;100.00
5284;BME280;15377;48.540;9.268;2024-02-14T12:35:50;97979.59;;;14.40;100.00
5284;BME280;15377;48.540;9.268;2024-02-14T12:38:17;97986.31;;;14.54;100.00
5284;BME280;15377;48.540;9.268;2024-02-14T12:40:43;97977.84;;;14.82;100.00
5284;BME280;15377;48.540;9.268;2024-02-14T12:43:14;97993.16;;;14.98;100.00
5284;BME280;15377;48.540;9.268;2024-02-14T12:45:40;97989.03;;;14.88;100.00
5284;BME280;15377;48.540;9.268;2024-02-14T12:48:06;97993.03;;;14.67;100.00
5284;BME280;15377;48.540;9.268;2024-02-14T12:50:36;97987.97;;;14.66;100.00
5284;BME280;15377;48.540;9.268;2024-02-14T12:53:07;97971.50;;;14.77;100.00
5284;BME280;15377;48.540;9.268;2024-02-14T12:55:33;97979.41;;;14.83;100.00
5284;BME280;15377;48.540;9.268;2024-02-14T12:57:59;97981.44;;;14.88;100.00
5284;BME280;15377;48.540;9.268;2024-02-14T13:00:24;97966.91;;;14.93;100.00
5284;BME280;15377;48.540;9.268;2024-02-14T13:02:50;97973.66;;;14.87;100.00
5284;BME280;15377;48.540;9.268;2024-02-14T13:05:16;97974.97;;;14.91;100.00